createdAt,value
2018-06-08T00:00:05.309Z,73.85
2018-06-08T00:01:05.027Z,73.95
2018-06-08T00:02:05.304Z,74.43
2018-06-08T00:03:05.084Z,74.24
2018-06-08T00:04:05.364Z,74.33
2018-06-08T00:05:05.136Z,74.05
2018-06-08T00:06:05.162Z,74.33
2018-06-08T00:07:05.443Z,74.01
2018-06-08T00:08:05.465Z,74.68
2018-06-08T00:09:05.495Z,73.53
2018-06-08T00:10:05.577Z,74.72
2018-06-08T00:11:05.541Z,74.91
2018-06-08T00:12:05.569Z,74.82
2018-06-08T00:13:05.596Z,74.14
2018-06-08T00:14:05.617Z,73.57
2018-06-08T00:15:05.388Z,74.43
2018-06-08T00:16:05.415Z,74.24
2018-06-08T00:17:05.692Z,73.82
2018-06-08T00:18:05.719Z,74.82
2018-06-08T00:19:05.745Z,74.43
2018-06-08T00:20:05.775Z,74.68
2018-06-08T00:21:05.796Z,74.78
2018-06-08T00:22:05.823Z,75.07
2018-06-08T00:23:05.851Z,73.75
2018-06-08T00:24:05.873Z,74.91
2018-06-08T00:25:06.045Z,73.95
2018-06-08T00:26:05.926Z,73.95
2018-06-08T00:27:05.952Z,73.66
2018-06-08T00:28:05.720Z,73.47
2018-06-08T00:29:05.999Z,74.52
2018-06-08T00:30:05.770Z,74.72
2018-06-08T00:31:05.798Z,73.95
2018-06-08T00:32:06.069Z,73.95
2018-06-08T00:33:05.854Z,74.33
2018-06-08T00:34:06.125Z,74.05
2018-06-08T00:35:06.144Z,73.75
2018-06-08T00:36:05.916Z,74.14
2018-06-08T00:37:05.942Z,74.14
2018-06-08T00:38:05.964Z,74.43
2018-06-08T00:39:06.266Z,74.24
2018-06-08T00:40:06.326Z,73.95
2018-06-08T00:41:06.304Z,74.05
2018-06-08T00:42:06.329Z,74.24
2018-06-08T00:43:06.102Z,74.52
2018-06-08T00:44:06.380Z,73.69
2018-06-08T00:45:06.254Z,74.95
2018-06-08T00:46:06.433Z,74.47
2018-06-08T00:47:06.463Z,73.66
2018-06-08T00:48:06.481Z,73.95
2018-06-08T00:49:06.510Z,74.05
2018-06-08T00:50:06.548Z,74.43
2018-06-08T00:51:06.306Z,74.62
2018-06-08T00:52:06.332Z,74.33
2018-06-08T00:53:06.359Z,74.62
2018-06-08T00:54:06.382Z,74.68
2018-06-08T00:55:06.719Z,74.68
2018-06-08T00:56:06.706Z,74.52
2018-06-08T00:57:06.713Z,74.72
2018-06-08T00:58:06.739Z,75.2
2018-06-08T00:59:06.770Z,74.72
2018-06-08T01:00:06.787Z,73.95
2018-06-08T01:01:06.561Z,74.62
2018-06-08T01:02:06.586Z,74.91
2018-06-08T01:03:06.884Z,74.05
2018-06-08T01:04:06.888Z,74.62
2018-06-08T01:05:06.661Z,74.49
2018-06-08T01:06:06.945Z,74.78
2018-06-08T01:07:06.970Z,73.91
2018-06-08T01:08:06.995Z,74.88
2018-06-08T01:09:06.766Z,74.68
2018-06-08T01:10:07.094Z,74.33
2018-06-08T01:11:07.069Z,75.2
2018-06-08T01:12:06.841Z,74.33
2018-06-08T01:13:07.118Z,74.14
2018-06-08T01:14:07.147Z,75.07
2018-06-08T01:15:07.171Z,74.33
2018-06-08T01:16:06.942Z,74.05
2018-06-08T01:17:07.222Z,74.33
2018-06-08T01:18:06.994Z,73.85
2018-06-08T01:19:07.018Z,75.1
2018-06-08T01:20:07.045Z,75.2
2018-06-08T01:21:07.070Z,74.62
2018-06-08T01:22:07.371Z,75.78
2018-06-08T01:23:07.376Z,74.24
2018-06-08T01:24:07.405Z,75.78
2018-06-08T01:25:07.481Z,74.2
2018-06-08T01:26:07.198Z,74.4
2018-06-08T01:27:07.475Z,75.16
2018-06-08T01:28:07.503Z,75.07
2018-06-08T01:29:07.528Z,74.88
2018-06-08T01:30:07.554Z,74.88
2018-06-08T01:31:07.580Z,74.68
2018-06-08T01:32:07.602Z,74.2
2018-06-08T01:33:07.632Z,74.4
2018-06-08T01:34:07.671Z,74.88
2018-06-08T01:35:07.429Z,74.97
2018-06-08T01:36:07.447Z,74.4
2018-06-08T01:37:07.474Z,74.78
2018-06-08T01:38:07.754Z,75.84
2018-06-08T01:39:07.523Z,74.78
2018-06-08T01:40:07.601Z,74.68
2018-06-08T01:41:07.577Z,75.16
2018-06-08T01:42:07.861Z,75.65
2018-06-08T01:43:07.630Z,75.07
2018-06-08T01:44:07.651Z,75.16
2018-06-08T01:45:07.939Z,75.07
2018-06-08T01:46:07.954Z,75.07
2018-06-08T01:47:07.979Z,75.13
2018-06-08T01:48:08.006Z,74.84
2018-06-08T01:49:07.777Z,75.71
2018-06-08T01:50:08.059Z,75.23
2018-06-08T01:51:08.083Z,74.8
2018-06-08T01:52:08.105Z,75.38
2018-06-08T01:53:07.875Z,75.48
2018-06-08T01:54:07.900Z,75.38
2018-06-08T01:55:07.975Z,75.48
2018-06-08T01:56:07.946Z,75.19
2018-06-08T01:57:07.970Z,75.57
2018-06-08T01:58:08.005Z,75.34
2018-06-08T01:59:08.021Z,75.05
2018-06-08T02:00:08.596Z,75.24
2018-06-08T02:01:08.320Z,75.15
2018-06-08T02:02:08.093Z,75.21
2018-06-08T02:03:08.120Z,75.69
2018-06-08T02:04:08.402Z,75.02
2018-06-08T02:05:08.428Z,75.49
2018-06-08T02:06:08.199Z,75.59
2018-06-08T02:07:08.474Z,75.02
2018-06-08T02:08:08.496Z,75.02
2018-06-08T02:09:08.267Z,75.21
2018-06-08T02:10:08.601Z,74.57
2018-06-08T02:11:08.575Z,75.15
2018-06-08T02:12:08.596Z,75.31
2018-06-08T02:13:08.618Z,75.24
2018-06-08T02:14:08.644Z,75.21
2018-06-08T02:15:08.415Z,75.15
2018-06-08T02:16:08.696Z,75.05
2018-06-08T02:17:08.721Z,75.15
2018-06-08T02:18:08.745Z,75.15
2018-06-08T02:19:08.764Z,75.34
2018-06-08T02:20:08.841Z,75.15
2018-06-08T02:21:08.815Z,75.44
2018-06-08T02:22:08.590Z,75.15
2018-06-08T02:23:08.601Z,75.05
2018-06-08T02:24:08.877Z,75.15
2018-06-08T02:25:08.898Z,75.24
2018-06-08T02:26:08.922Z,75.15
2018-06-08T02:27:08.959Z,75.34
2018-06-08T02:28:08.730Z,75.05
2018-06-08T02:29:09.007Z,75.34
2018-06-08T02:30:09.047Z,75.34
2018-06-08T02:31:09.056Z,74.96
2018-06-08T02:32:09.080Z,75.34
2018-06-08T02:33:09.108Z,74.92
2018-06-08T02:34:09.135Z,74.92
2018-06-08T02:35:09.202Z,75.49
2018-06-08T02:36:09.181Z,75.11
2018-06-08T02:37:09.204Z,75.02
2018-06-08T02:38:09.229Z,75.11
2018-06-08T02:39:09.248Z,74.57
2018-06-08T02:40:09.299Z,75.24
2018-06-08T02:41:09.295Z,75.05
2018-06-08T02:42:09.319Z,75.24
2018-06-08T02:43:09.345Z,74.57
2018-06-08T02:44:09.374Z,74.96
2018-06-08T02:45:09.160Z,75.15
2018-06-08T02:46:09.417Z,74.96
2018-06-08T02:47:09.447Z,75.34
2018-06-08T02:48:09.216Z,75.15
2018-06-08T02:49:09.488Z,75.15
2018-06-08T02:50:09.571Z,75.63
2018-06-08T02:51:09.545Z,75.44
2018-06-08T02:52:09.569Z,75.34
2018-06-08T02:53:09.594Z,75.34
2018-06-08T02:54:09.618Z,75.15
2018-06-08T02:55:09.645Z,75.34
2018-06-08T02:56:09.659Z,74.57
2018-06-08T02:57:09.690Z,74.57
2018-06-08T02:58:09.712Z,75.54
2018-06-08T02:59:09.735Z,75.24
2018-06-08T03:00:09.774Z,75.34
2018-06-08T03:01:09.791Z,75.34
2018-06-08T03:02:09.804Z,75.15
2018-06-08T03:03:09.835Z,75.24
2018-06-08T03:04:09.859Z,74.57
2018-06-08T03:05:09.930Z,75.34
2018-06-08T03:06:09.922Z,75.15
2018-06-08T03:07:09.929Z,75.54
2018-06-08T03:08:09.954Z,74.86
2018-06-08T03:09:09.982Z,75.34
2018-06-08T03:10:10.075Z,75.05
2018-06-08T03:11:09.772Z,75.15
2018-06-08T03:12:10.273Z,75.24
2018-06-08T03:13:10.086Z,75.34
2018-06-08T03:14:10.097Z,74.96
2018-06-08T03:15:10.420Z,75.15
2018-06-08T03:16:10.147Z,75.24
2018-06-08T03:17:10.167Z,76.11
2018-06-08T03:18:09.940Z,75.21
2018-06-08T03:19:10.237Z,75.31
2018-06-08T03:20:09.989Z,75.59
2018-06-08T03:21:10.271Z,75.59
2018-06-08T03:22:10.290Z,75.49
2018-06-08T03:23:10.313Z,75.31
2018-06-08T03:24:10.103Z,75.02
2018-06-08T03:25:10.363Z,75.21
2018-06-08T03:26:10.130Z,75.21
2018-06-08T03:27:10.408Z,74.38
2018-06-08T03:28:10.175Z,75.15
2018-06-08T03:29:10.450Z,76.31
2018-06-08T03:30:10.535Z,75.05
2018-06-08T03:31:10.511Z,74.96
2018-06-08T03:32:10.281Z,75.63
2018-06-08T03:33:10.551Z,74.48
2018-06-08T03:34:10.581Z,74.96
2018-06-08T03:35:10.601Z,75.24
2018-06-08T03:36:10.372Z,75.24
2018-06-08T03:37:10.395Z,74.67
2018-06-08T03:38:10.679Z,74.38
2018-06-08T03:39:10.442Z,75.34
2018-06-08T03:40:10.722Z,75.15
2018-06-08T03:41:10.744Z,74.96
2018-06-08T03:42:10.516Z,75.24
2018-06-08T03:43:10.790Z,75.15
2018-06-08T03:44:10.565Z,74.96
2018-06-08T03:45:10.886Z,75.05
2018-06-08T03:46:10.863Z,74.96
2018-06-08T03:47:10.892Z,75.28
2018-06-08T03:48:10.912Z,75.38
2018-06-08T03:49:10.684Z,75.28
2018-06-08T03:50:10.956Z,74.71
2018-06-08T03:51:10.983Z,74.99
2018-06-08T03:52:11.015Z,75.38
2018-06-08T03:53:11.040Z,74.8
2018-06-08T03:54:10.809Z,74.99
2018-06-08T03:55:11.090Z,74.99
2018-06-08T03:56:11.116Z,74.8
2018-06-08T03:57:11.135Z,74.8
2018-06-08T03:58:11.175Z,75.48
2018-06-08T03:59:11.181Z,75.09
2018-06-08T04:00:11.260Z,75.09
2018-06-08T04:01:11.229Z,74.9
2018-06-08T04:02:11.001Z,74.61
2018-06-08T04:03:11.289Z,74.65
2018-06-08T04:04:11.049Z,74.84
2018-06-08T04:05:11.323Z,74.45
2018-06-08T04:06:11.350Z,75.03
2018-06-08T04:07:11.379Z,74.74
2018-06-08T04:08:11.145Z,74.74
2018-06-08T04:09:11.430Z,74.84
2018-06-08T04:10:11.452Z,75.23
2018-06-08T04:11:11.481Z,75.32
2018-06-08T04:12:11.501Z,74.74
2018-06-08T04:13:11.539Z,75.03
2018-06-08T04:14:11.552Z,75.32
2018-06-08T04:15:11.621Z,75.03
2018-06-08T04:16:11.604Z,74.84
2018-06-08T04:17:11.370Z,75.42
2018-06-08T04:18:11.647Z,75.03
2018-06-08T04:19:11.672Z,75.23
2018-06-08T04:20:11.700Z,74.84
2018-06-08T04:21:11.723Z,75.61
2018-06-08T04:22:11.495Z,75.13
2018-06-08T04:23:11.778Z,75.51
2018-06-08T04:24:11.799Z,75.03
2018-06-08T04:25:11.822Z,75.23
2018-06-08T04:26:11.849Z,75.03
2018-06-08T04:27:11.874Z,74.84
2018-06-08T04:28:11.894Z,75.03
2018-06-08T04:29:11.919Z,74.93
2018-06-08T04:30:11.999Z,75.71
2018-06-08T04:31:11.714Z,74.84
2018-06-08T04:32:11.991Z,75.71
2018-06-08T04:33:12.020Z,75.13
2018-06-08T04:34:12.039Z,74.84
2018-06-08T04:35:12.074Z,75.23
2018-06-08T04:36:12.088Z,75.23
2018-06-08T04:37:12.123Z,75.61
2018-06-08T04:38:12.143Z,75.51
2018-06-08T04:39:12.169Z,75.13
2018-06-08T04:40:12.189Z,75.32
2018-06-08T04:41:12.216Z,75.13
2018-06-08T04:42:12.247Z,74.84
2018-06-08T04:43:12.271Z,74.93
2018-06-08T04:44:12.036Z,75.61
2018-06-08T04:45:12.377Z,75.71
2018-06-08T04:46:12.336Z,74.93
2018-06-08T04:47:12.370Z,74.93
2018-06-08T04:48:12.448Z,75.13
2018-06-08T04:49:12.419Z,75.84
2018-06-08T04:50:12.449Z,74.88
2018-06-08T04:51:12.461Z,76.03
2018-06-08T04:52:12.492Z,75.74
2018-06-08T04:53:12.517Z,75.16
2018-06-08T04:54:12.543Z,75.74
2018-06-08T04:55:12.564Z,74.97
2018-06-08T04:56:12.586Z,74.97
2018-06-08T04:57:12.612Z,74.97
2018-06-08T04:58:12.682Z,75.07
2018-06-08T04:59:12.657Z,74.97
2018-06-08T05:00:12.740Z,75.07
2018-06-08T05:01:12.718Z,75.16
2018-06-08T05:02:12.740Z,75.16
2018-06-08T05:03:12.760Z,75.07
2018-06-08T05:04:12.784Z,74.97
2018-06-08T05:05:12.864Z,74.91
2018-06-08T05:06:12.584Z,74.2
2018-06-08T05:07:12.864Z,75.1
2018-06-08T05:08:12.888Z,75.49
2018-06-08T05:09:12.985Z,74.43
2018-06-08T05:10:12.934Z,75.01
2018-06-08T05:11:12.963Z,74.62
2018-06-08T05:12:12.988Z,75.49
2018-06-08T05:13:13.013Z,75.62
2018-06-08T05:14:13.034Z,74.76
2018-06-08T05:15:13.063Z,74.37
2018-06-08T05:16:13.089Z,74.76
2018-06-08T05:17:13.116Z,74.76
2018-06-08T05:18:13.140Z,74.37
2018-06-08T05:19:13.164Z,75.14
2018-06-08T05:20:13.349Z,74.47
2018-06-08T05:21:12.963Z,74.47
2018-06-08T05:22:12.991Z,74.41
2018-06-08T05:23:13.270Z,74.51
2018-06-08T05:24:13.296Z,74.79
2018-06-08T05:25:13.321Z,74.89
2018-06-08T05:26:13.454Z,74.79
2018-06-08T05:27:13.376Z,74.79
2018-06-08T05:28:13.391Z,74.79
2018-06-08T05:29:13.411Z,74.89
2018-06-08T05:30:13.445Z,74.89
2018-06-08T05:31:13.213Z,74.79
2018-06-08T05:32:13.498Z,75.09
2018-06-08T05:33:13.266Z,74.79
2018-06-08T05:34:13.542Z,74.12
2018-06-08T05:35:13.620Z,74.73
2018-06-08T05:36:13.764Z,74.83
2018-06-08T05:37:13.417Z,74.35
2018-06-08T05:38:13.395Z,75.51
2018-06-08T05:39:13.668Z,75.22
2018-06-08T05:40:13.450Z,74.51
2018-06-08T05:41:13.731Z,75.09
2018-06-08T05:42:13.761Z,75.22
2018-06-08T05:43:13.528Z,75.22
2018-06-08T05:44:13.850Z,74.89
2018-06-08T05:45:13.849Z,74.6
2018-06-08T05:46:13.861Z,75.41
2018-06-08T05:47:13.882Z,74.83
2018-06-08T05:48:14.016Z,74.89
2018-06-08T05:49:13.939Z,74.6
2018-06-08T05:50:13.760Z,74.93
2018-06-08T05:51:13.988Z,74.73
2018-06-08T05:52:14.015Z,74.83
2018-06-08T05:53:13.786Z,75.22
2018-06-08T05:54:14.158Z,75.7
2018-06-08T05:55:14.141Z,74.83
2018-06-08T05:56:14.139Z,75.22
2018-06-08T05:57:14.147Z,75.31
2018-06-08T05:58:13.916Z,75.12
2018-06-08T05:59:13.941Z,75.22
2018-06-08T06:00:14.225Z,74.73
2018-06-08T06:01:14.325Z,74.16
2018-06-08T06:02:14.274Z,74.73
2018-06-08T06:03:14.300Z,74.54
2018-06-08T06:04:14.332Z,75.22
2018-06-08T06:05:14.399Z,74.54
2018-06-08T06:06:14.376Z,75.12
2018-06-08T06:07:14.408Z,75.02
2018-06-08T06:08:14.466Z,75.22
2018-06-08T06:09:14.454Z,75.22
2018-06-08T06:10:14.508Z,74.54
2018-06-08T06:11:14.506Z,74.93
2018-06-08T06:12:14.530Z,74.54
2018-06-08T06:13:14.556Z,74.16
2018-06-08T06:14:14.328Z,74.93
2018-06-08T06:15:14.350Z,74.1
2018-06-08T06:16:14.626Z,74.48
2018-06-08T06:17:14.650Z,75.22
2018-06-08T06:18:14.678Z,74.38
2018-06-08T06:19:14.709Z,74.44
2018-06-08T06:20:14.528Z,75.06
2018-06-08T06:21:14.536Z,75.35
2018-06-08T06:22:14.787Z,75.06
2018-06-08T06:23:14.809Z,74.87
2018-06-08T06:24:14.835Z,74.16
2018-06-08T06:25:14.862Z,74.87
2018-06-08T06:26:14.878Z,75.06
2018-06-08T06:27:14.907Z,75.35
2018-06-08T06:28:14.682Z,74.58
2018-06-08T06:29:14.708Z,75.06
2018-06-08T06:30:14.735Z,74.38
2018-06-08T06:31:15.010Z,74.68
2018-06-08T06:32:15.084Z,73.9
2018-06-08T06:33:15.060Z,74.19
2018-06-08T06:34:15.099Z,74.62
2018-06-08T06:35:15.178Z,74.52
2018-06-08T06:36:15.153Z,74.42
2018-06-08T06:37:14.926Z,74.9
2018-06-08T06:38:15.206Z,75.39
2018-06-08T06:39:15.233Z,74.42
2018-06-08T06:40:15.263Z,74.9
2018-06-08T06:41:15.287Z,74.13
2018-06-08T06:42:15.312Z,74.23
2018-06-08T06:43:15.085Z,74.71
2018-06-08T06:44:15.363Z,75.2
2018-06-08T06:45:15.392Z,74.27
2018-06-08T06:46:15.416Z,74.23
2018-06-08T06:47:15.193Z,73.94
2018-06-08T06:48:15.469Z,74.32
2018-06-08T06:49:15.493Z,74.85
2018-06-08T06:50:15.569Z,74.17
2018-06-08T06:51:15.300Z,73.97
2018-06-08T06:52:15.573Z,74.46
2018-06-08T06:53:15.450Z,74.65
2018-06-08T06:54:15.633Z,74.69
2018-06-08T06:55:15.651Z,74.11
2018-06-08T06:56:15.426Z,73.82
2018-06-08T06:57:15.452Z,74.3
2018-06-08T06:58:15.730Z,74.11
2018-06-08T06:59:15.759Z,73.63
2018-06-08T07:00:15.790Z,74.79
2018-06-08T07:01:15.816Z,74.05
2018-06-08T07:02:15.845Z,73.57
2018-06-08T07:03:15.869Z,73.57
2018-06-08T07:04:15.893Z,73.69
2018-06-08T07:05:15.975Z,73.6
2018-06-08T07:06:15.697Z,73.99
2018-06-08T07:07:15.725Z,73.85
2018-06-08T07:08:16.007Z,73.75
2018-06-08T07:09:16.029Z,73.99
2018-06-08T07:10:15.906Z,73.41
2018-06-08T07:11:16.084Z,74.28
2018-06-08T07:12:15.860Z,74.38
2018-06-08T07:13:16.141Z,73.69
2018-06-08T07:14:16.169Z,73.5
2018-06-08T07:15:16.198Z,73.6
2018-06-08T07:16:16.220Z,73.89
2018-06-08T07:17:16.250Z,73.99
2018-06-08T07:18:16.022Z,73.21
2018-06-08T07:19:16.310Z,73.41
2018-06-08T07:20:16.382Z,73.41
2018-06-08T07:21:16.360Z,74.28
2018-06-08T07:22:16.384Z,73.6
2018-06-08T07:23:16.418Z,74.08
2018-06-08T07:24:16.440Z,74.08
2018-06-08T07:25:16.459Z,73.5
2018-06-08T07:26:16.489Z,74.24
2018-06-08T07:27:16.520Z,73.95
2018-06-08T07:28:16.540Z,73.27
2018-06-08T07:29:16.570Z,73.57
2018-06-08T07:30:16.601Z,74.05
2018-06-08T07:31:16.624Z,74.82
2018-06-08T07:32:16.660Z,73.57
2018-06-08T07:33:16.425Z,73.57
2018-06-08T07:34:16.461Z,73.85
2018-06-08T07:35:16.790Z,73.57
2018-06-08T07:36:16.512Z,73.37
2018-06-08T07:37:16.791Z,74.73
2018-06-08T07:38:16.567Z,73.57
2018-06-08T07:39:16.600Z,72.73
2018-06-08T07:40:17.147Z,74.05
2018-06-08T07:41:16.684Z,73.18
2018-06-08T07:42:16.932Z,73.41
2018-06-08T07:43:16.706Z,73.79
2018-06-08T07:44:16.993Z,74.28
2018-06-08T07:45:16.759Z,72.83
2018-06-08T07:46:17.040Z,73.64
2018-06-08T07:47:17.069Z,73.44
2018-06-08T07:48:17.093Z,73.64
2018-06-08T07:49:17.124Z,73.05
2018-06-08T07:50:17.209Z,73.05
2018-06-08T07:51:17.180Z,72.71
2018-06-08T07:52:17.201Z,72.22
2018-06-08T07:53:17.231Z,73.09
2018-06-08T07:54:17.259Z,72.77
2018-06-08T07:55:17.285Z,73.19
2018-06-08T07:56:17.316Z,72.71
2018-06-08T07:57:17.091Z,72.61
2018-06-08T07:58:17.378Z,73.09
2018-06-08T07:59:17.147Z,73.09
2018-06-08T08:00:17.429Z,72.41
2018-06-08T08:01:17.490Z,72.71
2018-06-08T08:02:17.482Z,73.77
2018-06-08T08:03:17.257Z,72.89
2018-06-08T08:04:17.539Z,72.89
2018-06-08T08:05:17.363Z,72.71
2018-06-08T08:06:17.595Z,72.99
2018-06-08T08:07:17.621Z,72.93
2018-06-08T08:08:17.649Z,72.12
2018-06-08T08:09:17.450Z,72.41
2018-06-08T08:10:17.502Z,72.41
2018-06-08T08:11:17.475Z,72.41
2018-06-08T08:12:17.757Z,72.38
2018-06-08T08:13:17.782Z,72.96
2018-06-08T08:14:17.808Z,73.05
2018-06-08T08:15:17.836Z,72.86
2018-06-08T08:16:17.872Z,73.54
2018-06-08T08:17:17.896Z,72.61
2018-06-08T08:18:17.929Z,72.8
2018-06-08T08:19:18.072Z,72.45
2018-06-08T08:20:17.986Z,72.45
2018-06-08T08:21:18.009Z,72.64
2018-06-08T08:22:17.779Z,72.16
2018-06-08T08:23:18.057Z,71.58
2018-06-08T08:24:18.084Z,72.45
2018-06-08T08:25:18.173Z,72.71
2018-06-08T08:26:18.143Z,72.45
2018-06-08T08:27:18.174Z,72.74
2018-06-08T08:28:18.198Z,71.51
2018-06-08T08:29:18.243Z,71.51
2018-06-08T08:30:18.263Z,71.61
2018-06-08T08:31:18.034Z,71.84
2018-06-08T08:32:18.311Z,71.64
2018-06-08T08:33:18.346Z,70.87
2018-06-08T08:34:18.481Z,71.84
2018-06-08T08:35:18.403Z,70.77
2018-06-08T08:36:18.424Z,71.36
2018-06-08T08:37:18.455Z,71.36
2018-06-08T08:38:18.483Z,71.26
2018-06-08T08:39:18.261Z,71.1
2018-06-08T08:40:18.598Z,71.64
2018-06-08T08:41:18.323Z,70.71
2018-06-08T08:42:18.605Z,70.71
2018-06-08T08:43:18.378Z,70.51
2018-06-08T08:44:18.663Z,70.03
2018-06-08T08:45:18.741Z,70.9
2018-06-08T08:46:18.731Z,70.61
2018-06-08T08:47:18.751Z,69.84
2018-06-08T08:48:18.774Z,69.87
2018-06-08T08:49:18.802Z,71.1
2018-06-08T08:50:18.884Z,70.36
2018-06-08T08:51:18.862Z,70.06
2018-06-08T08:52:18.888Z,70.75
2018-06-08T08:53:18.914Z,69.67
2018-06-08T08:54:18.948Z,70.78
2018-06-08T08:55:18.723Z,68.38
2018-06-08T08:56:18.754Z,67.7
2018-06-08T08:57:19.054Z,68.09
2018-06-08T08:58:19.057Z,68.44
2018-06-08T08:59:19.086Z,68.29
2018-06-08T09:00:18.864Z,68.64
2018-06-08T09:01:19.146Z,67.7
2018-06-08T09:02:19.174Z,68.25
2018-06-08T09:03:19.205Z,68.74
2018-06-08T09:04:19.235Z,67.86
2018-06-08T09:05:19.312Z,68.74
2018-06-08T09:06:19.291Z,69.22
2018-06-08T09:07:19.319Z,69.13
2018-06-08T09:08:19.366Z,69.61
2018-06-08T09:09:19.388Z,68.87
2018-06-08T09:10:19.418Z,68.87
2018-06-08T09:11:19.462Z,68.38
2018-06-08T09:12:19.470Z,68.29
2018-06-08T09:13:19.259Z,68.64
2018-06-08T09:14:19.540Z,69.22
2018-06-08T09:15:19.561Z,69.06
2018-06-08T09:16:19.599Z,67.73
2018-06-08T09:17:19.623Z,68.12
2018-06-08T09:18:19.652Z,67.44
2018-06-08T09:19:19.425Z,66.73
2018-06-08T09:20:19.861Z,66.76
2018-06-08T09:21:19.485Z,66.47
2018-06-08T09:22:19.770Z,66.5
2018-06-08T09:23:19.545Z,66.31
2018-06-08T09:24:19.827Z,67.63
2018-06-08T09:25:19.861Z,68.09
2018-06-08T09:26:19.880Z,68.77
2018-06-08T09:27:19.941Z,68.35
2018-06-08T09:28:19.691Z,68.77
2018-06-08T09:29:19.974Z,68.77
2018-06-08T09:30:20.000Z,68.57
2018-06-08T09:31:19.779Z,68.48
2018-06-08T09:32:19.809Z,68.29
2018-06-08T09:33:20.095Z,69.51
2018-06-08T09:34:20.128Z,67.9
2018-06-08T09:35:20.157Z,67.05
2018-06-08T09:36:20.191Z,66.27
2018-06-08T09:37:20.219Z,66.21
2018-06-08T09:38:20.303Z,66.21
2018-06-08T09:39:20.272Z,66.02
2018-06-08T09:40:20.309Z,65.72
2018-06-08T09:41:20.333Z,65.43
2018-06-08T09:42:20.367Z,64.49
2018-06-08T09:43:20.394Z,64.69
2018-06-08T09:44:20.429Z,63.25
2018-06-08T09:45:20.451Z,62.66
2018-06-08T09:46:20.517Z,60.82
2018-06-08T09:47:20.258Z,61.4
2018-06-08T09:48:20.544Z,61.69
2018-06-08T09:49:20.572Z,62.47
2018-06-08T09:50:20.599Z,61.21
2018-06-08T09:51:20.633Z,57.85
2018-06-08T09:52:20.664Z,53.71
2018-06-08T09:53:20.489Z,54.79
2018-06-08T09:54:20.726Z,55.08
2018-06-08T09:55:20.753Z,54.71
2018-06-08T09:56:20.784Z,53.96
2018-06-08T09:57:20.821Z,49.29
2018-06-08T09:58:20.856Z,46.5
2018-06-08T09:59:20.878Z,46.01
2018-06-08T10:00:20.908Z,45.15
2018-06-08T10:01:20.945Z,46.03
2018-06-08T10:02:20.978Z,47.11
2018-06-08T10:03:21.006Z,47.87
2018-06-08T10:04:21.037Z,47.72
2018-06-08T10:05:21.119Z,48.02
2018-06-08T10:06:21.100Z,49.73
2018-06-08T10:07:21.132Z,51.2
2018-06-08T10:08:21.461Z,46.75
2018-06-08T10:09:21.196Z,47.31
2018-06-08T10:10:20.974Z,46.55
2018-06-08T10:11:21.364Z,47.24
2018-06-08T10:12:21.292Z,45.59
2018-06-08T10:13:21.427Z,47.16
2018-06-08T10:14:21.360Z,45.59
2018-06-08T10:15:21.393Z,44.27
2018-06-08T10:16:21.424Z,44.19
2018-06-08T10:17:21.202Z,43.12
2018-06-08T10:18:21.237Z,41.86
2018-06-08T10:19:21.536Z,40.63
2018-06-08T10:20:21.598Z,39.76
2018-06-08T10:21:21.588Z,40.35
2018-06-08T10:22:21.630Z,41.02
2018-06-08T10:23:21.694Z,39.35
2018-06-08T10:24:21.677Z,40.82
2018-06-08T10:25:21.710Z,38.19
2018-06-08T10:26:21.492Z,37.9
2018-06-08T10:27:21.789Z,40.06
2018-06-08T10:28:21.917Z,38.09
2018-06-08T10:29:21.853Z,38.19
2018-06-08T10:30:21.883Z,38.19
2018-06-08T10:31:21.923Z,37.8
2018-06-08T10:32:21.697Z,36.65
2018-06-08T10:33:21.980Z,36.16
2018-06-08T10:34:22.025Z,35.59
2018-06-08T10:35:21.796Z,35.61
2018-06-08T10:36:22.086Z,33.75
2018-06-08T10:37:22.118Z,35.15
2018-06-08T10:38:22.201Z,34.08
2018-06-08T10:39:21.932Z,33.22
2018-06-08T10:40:22.217Z,33
2018-06-08T10:41:22.252Z,32.31
2018-06-08T10:42:22.287Z,32.9
2018-06-08T10:43:22.112Z,32.9
2018-06-08T10:44:22.354Z,32.21
2018-06-08T10:45:22.386Z,30.94
2018-06-08T10:46:22.424Z,31.32
2018-06-08T10:47:22.207Z,31.41
2018-06-08T10:48:22.501Z,32.31
2018-06-08T10:49:22.531Z,30.83
2018-06-08T10:50:22.565Z,30.65
2018-06-08T10:51:22.588Z,29.47
2018-06-08T10:52:22.370Z,30.66
2018-06-08T10:53:22.405Z,29.8
2018-06-08T10:54:22.693Z,30.1
2018-06-08T10:55:22.740Z,30.17
2018-06-08T10:56:22.518Z,31.6
2018-06-08T10:57:22.815Z,30.72
2018-06-08T10:58:22.837Z,33.95
2018-06-08T10:59:22.621Z,33.15
2018-06-08T11:00:22.907Z,31.29
2018-06-08T11:01:22.938Z,31.51
2018-06-08T11:02:22.772Z,32.79
2018-06-08T11:03:22.756Z,33.05
2018-06-08T11:04:23.045Z,32.18
2018-06-08T11:05:23.077Z,31.6
2018-06-08T11:06:23.111Z,30.82
2018-06-08T11:07:23.148Z,30.03
2018-06-08T11:08:23.182Z,31.59
2018-06-08T11:09:23.214Z,30.75
2018-06-08T11:10:22.998Z,29.78
2018-06-08T11:11:23.034Z,29.6
2018-06-08T11:12:23.323Z,30.6
2018-06-08T11:13:23.357Z,29.21
2018-06-08T11:14:23.391Z,29.21
2018-06-08T11:15:23.433Z,29.82
2018-06-08T11:16:23.208Z,28.65
2018-06-08T11:17:23.545Z,28.05
2018-06-08T11:18:23.277Z,27.87
2018-06-08T11:19:23.569Z,27.19
2018-06-08T11:20:23.604Z,26.43
2018-06-08T11:21:23.651Z,25.34
2018-06-08T11:22:23.671Z,27.32
2018-06-08T11:23:23.452Z,26.53
2018-06-08T11:24:23.488Z,25.05
2018-06-08T11:25:23.778Z,26.04
2018-06-08T11:26:23.816Z,26.06
2018-06-08T11:27:23.847Z,27.62
2018-06-08T11:28:23.886Z,26.44
2018-06-08T11:29:23.916Z,25.08
2018-06-08T11:30:23.975Z,27.51
2018-06-08T11:31:23.997Z,26.32
2018-06-08T11:32:23.826Z,25.03
2018-06-08T11:33:23.808Z,25.54
2018-06-08T11:34:24.098Z,25.07
2018-06-08T11:35:23.883Z,24.87
2018-06-08T11:36:24.176Z,24.88
2018-06-08T11:37:24.246Z,24.01
2018-06-08T11:38:24.243Z,23.03
2018-06-08T11:39:24.031Z,23.83
2018-06-08T11:40:24.321Z,21.77
2018-06-08T11:41:24.402Z,21.98
2018-06-08T11:42:24.387Z,21.48
2018-06-08T11:43:24.173Z,22.67
2018-06-08T11:44:24.463Z,22.96
2018-06-08T11:45:24.498Z,23.34
2018-06-08T11:46:24.534Z,23.52
2018-06-08T11:47:24.574Z,24.31
2018-06-08T11:48:24.611Z,25.07
2018-06-08T11:49:24.645Z,25.24
2018-06-08T11:50:24.429Z,25.24
2018-06-08T11:51:24.717Z,25.34
2018-06-08T11:52:24.801Z,23.96
2018-06-08T11:53:24.790Z,23.79
2018-06-08T11:54:24.826Z,22.53
2018-06-08T11:55:24.611Z,21.15
2018-06-08T11:56:24.904Z,22.85
2018-06-08T11:57:25.089Z,22.33
2018-06-08T11:58:24.720Z,21.96
2018-06-08T11:59:25.015Z,21.05
2018-06-08T12:00:25.047Z,22.92
2018-06-08T12:01:25.090Z,22.03
2018-06-08T12:02:25.171Z,22.74
2018-06-08T12:03:25.146Z,20.29
2018-06-08T12:04:25.181Z,20.01
2018-06-08T12:05:25.223Z,20.41
2018-06-08T12:06:25.008Z,20.5
2018-06-08T12:07:25.293Z,21.37
2018-06-08T12:08:25.330Z,22.03
2018-06-08T12:09:25.377Z,22.13
2018-06-08T12:10:25.408Z,22.11
2018-06-08T12:11:25.441Z,21.74
2018-06-08T12:12:25.537Z,22.05
2018-06-08T12:13:25.526Z,23.8
2018-06-08T12:14:25.562Z,23.37
2018-06-08T12:15:25.595Z,23.58
2018-06-08T12:16:25.378Z,23.19
2018-06-08T12:17:25.413Z,23.48
2018-06-08T12:18:25.705Z,23.96
2018-06-08T12:19:25.487Z,24.74
2018-06-08T12:20:25.779Z,25.23
2018-06-08T12:21:25.810Z,24.54
2018-06-08T12:22:25.846Z,22.97
2018-06-08T12:23:25.628Z,22.11
2018-06-08T12:24:25.917Z,21.73
2018-06-08T12:25:25.954Z,22.25
2018-06-08T12:26:25.987Z,20.47
2018-06-08T12:27:25.822Z,21.46
2018-06-08T12:28:26.061Z,21.23
2018-06-08T12:29:26.086Z,20.54
2018-06-08T12:30:26.124Z,19.96
2018-06-08T12:31:26.155Z,20.37
2018-06-08T12:32:26.195Z,20.18
2018-06-08T12:33:26.231Z,20.19
2018-06-08T12:34:26.262Z,20.18
2018-06-08T12:35:26.303Z,20.28
2018-06-08T12:36:26.353Z,21.25
2018-06-08T12:37:26.133Z,22.13
2018-06-08T12:38:26.420Z,20.76
2018-06-08T12:39:26.471Z,20.38
2018-06-08T12:40:26.240Z,20.38
2018-06-08T12:41:26.531Z,20.18
2018-06-08T12:42:26.363Z,19.68
2018-06-08T12:43:26.601Z,19.89
2018-06-08T12:44:26.640Z,20.4
2018-06-08T12:45:26.674Z,19.69
2018-06-08T12:46:26.714Z,19.99
2018-06-08T12:47:26.750Z,19.69
2018-06-08T12:48:26.783Z,19.01
2018-06-08T12:49:26.568Z,18.24
2018-06-08T12:50:26.858Z,18.33
2018-06-08T12:51:26.891Z,17.55
2018-06-08T12:52:26.931Z,17.36
2018-06-08T12:53:26.720Z,17.95
2018-06-08T12:54:26.754Z,18.84